Overview Statistics Trail Chart Weather Telemetry Raw packets
 

This is the latest recevied telemetry packets stored in our database for station/object DL2AKT-99. If no packets are shown the sender has not sent any telemetry packets the latest 10 day(s).

Telemetry packets is used to share measurements like repeteater parameters, battery voltage, radiation readings (or any other measurements).

<< 1 2 3 4 >>
Time Press* Temp.in* Hum* QNH* Temp.out*
1788630268 975.2 hPa 19.8 C deg 46.7 % 1024.6 hPa 0 C deg
1788628453 975 hPa 20.1 C deg 46 % 1024.2 hPa 0 C deg
1788626638 974.6 hPa 20.2 C deg 44.9 % 1023.9 hPa 0 C deg
1788624823 974.2 hPa 20.4 C deg 45.2 % 1023.5 hPa 0 C deg
1788623154 974 hPa 20.3 C deg 44.5 % 1023.2 hPa 0 C deg
1788623007 974 hPa 20.3 C deg 44.5 % 1023.2 hPa 0 C deg
1788621192 973.7 hPa 20.4 C deg 44.1 % 1022.9 hPa 0 C deg
1788619497 973.6 hPa 20.3 C deg 44 % 1022.8 hPa 0 C deg
1788619377 973.6 hPa 20.3 C deg 44 % 1022.8 hPa 0 C deg
1788617562 973.7 hPa 20.5 C deg 44.7 % 1022.8 hPa 0 C deg
1788615953 973.5 hPa 20.7 C deg 44.7 % 1022.7 hPa 0 C deg
1788615747 973.5 hPa 20.7 C deg 44.7 % 1022.7 hPa 0 C deg
1788614275 973.4 hPa 20.5 C deg 47.6 % 1022.6 hPa 0 C deg
1788613932 973.4 hPa 20.5 C deg 47.6 % 1022.6 hPa 0 C deg
1788612143 973.3 hPa 20.5 C deg 46.4 % 1022.5 hPa 0 C deg
1788612117 973.3 hPa 20.5 C deg 46.4 % 1022.5 hPa 0 C deg
1788610302 973.3 hPa 20.3 C deg 46.8 % 1022.5 hPa 0 C deg
1788608487 973.2 hPa 20.4 C deg 47.6 % 1022.3 hPa 0 C deg
1788606671 973.1 hPa 20.2 C deg 50.4 % 1022.3 hPa 0 C deg
1788604856 973.4 hPa 19.6 C deg 51.8 % 1022.7 hPa 0 C deg
1788603049 973.2 hPa 19.4 C deg 52.8 % 1022.5 hPa 0 C deg
1788601226 973 hPa 19 C deg 54.7 % 1022.4 hPa 0 C deg
1788599411 973 hPa 18.6 C deg 56.5 % 1022.4 hPa 0 C deg
1788597596 972.7 hPa 18.8 C deg 58.6 % 1022.1 hPa 0 C deg
1788595781 972.5 hPa 18.5 C deg 60.2 % 1021.9 hPa 0 C deg
*Used Equation Coefficients:
Press: 0, 1, 0
Temp.in: 0, 1, 0
Hum: 0, 1, 0
QNH: 0, 1, 0
Temp.out: 0, 1, 0

  • The parameter names for the analog channels will be Value1, Value2, Value3 (up to Value5) if station has not sent a PARAM-packet that specifies the parameter names for each analog channel.
  • Each analog value is a decimal number between 000 and 255 (according to APRS specifications). The receiver use the telemetry equation coefficientsto to restore the original sensor values. If no EQNS-packet with equation coefficients is sent we will show the values as is (this corresponds to the equation coefficients a=0, b=1 and c=0).
    The sent equation coefficients is used in the equation: a * value2 + b * value + c.
  • The units for the analog values will not be shown if station has not sent a UNIT-packet specifying what unit's to use.
  • The parameter names for the digital bits will be Bit1, Bit2, Bit3 (up to Bit8) if station has not sent a PARAM-packet that specifies the parameter names for each digital bit.
  • All bit labels will be named "On" if station has not sent a UNIT-packet that specifies the label of each bit.
  • A bit is considered to be On when the bit is 1 if station has not sent a BITS-packet that specifies another "Bit sense" (a BITS-packet specify the state of the bits that match the BIT labels)